Terminal Aerodrome Forecast
Issued by NWS

Home | Current Version | Previous Version | Text Only | Print | Product List | Glossary On
Versions: 1 2 3 4 5 6 7 8 9 10 11 12 13 14 15 16 17 18 19 20 21 22 23
000
FTAK31 PAJN 281724
TAFAYA
TAF
PAYA 281724Z 2818/2918 VRB05KT P6SM VCSH SCT015 BKN080
      WS020/04030KT
     FM282100 05008KT P6SM SCT070 WS020/04025KT
     FM290400 VRB03KT P6SM BKN050 BKN100
     FM290800 09008KT 6SM -SHRA BKN035 OVC050
     FM291400 09005KT P6SM -SHRA BKN040 OVC050
      AMD LTD TO CLD VIS AND WIND 2901/2910=

USA.gov is the U.S. government's official web portal to all federal, state and local government web resources and services.